sensor_id;sensor_type;location;lat;lon;timestamp;pressure;altitude;pressure_sealevel;temperature;humidity
8653;BME280;4364;52.426;9.424;2022-10-16T00:00:21;100594.34;;;12.36;84.15
8653;BME280;4364;52.426;9.424;2022-10-16T00:02:48;100594.19;;;12.27;84.46
8653;BME280;4364;52.426;9.424;2022-10-16T00:05:14;100596.38;;;12.25;84.51
8653;BME280;4364;52.426;9.424;2022-10-16T00:07:41;100593.94;;;12.23;84.60
8653;BME280;4364;52.426;9.424;2022-10-16T00:10:08;100605.59;;;12.29;84.69
8653;BME280;4364;52.426;9.424;2022-10-16T00:12:34;100609.72;;;12.27;84.53
8653;BME280;4364;52.426;9.424;2022-10-16T00:15:01;100612.53;;;12.21;84.30
8653;BME280;4364;52.426;9.424;2022-10-16T00:17:29;100600.78;;;12.21;84.07
8653;BME280;4364;52.426;9.424;2022-10-16T00:19:55;100604.34;;;12.21;84.09
8653;BME280;4364;52.426;9.424;2022-10-16T00:22:23;100609.84;;;12.16;84.45
8653;BME280;4364;52.426;9.424;2022-10-16T00:24:51;100621.31;;;12.13;84.30
8653;BME280;4364;52.426;9.424;2022-10-16T00:27:17;100619.69;;;12.12;84.54
8653;BME280;4364;52.426;9.424;2022-10-16T00:29:44;100618.66;;;12.08;84.27
8653;BME280;4364;52.426;9.424;2022-10-16T00:32:10;100624.41;;;12.07;84.07
8653;BME280;4364;52.426;9.424;2022-10-16T00:34:37;100625.47;;;12.05;84.64
8653;BME280;4364;52.426;9.424;2022-10-16T00:37:03;100617.03;;;12.07;84.50
8653;BME280;4364;52.426;9.424;2022-10-16T00:39:30;100628.72;;;12.08;84.24
8653;BME280;4364;52.426;9.424;2022-10-16T00:41:56;100623.03;;;12.04;84.34
8653;BME280;4364;52.426;9.424;2022-10-16T00:44:50;100622.81;;;12.00;84.79
8653;BME280;4364;52.426;9.424;2022-10-16T00:47:22;100636.97;;;12.02;84.77
8653;BME280;4364;52.426;9.424;2022-10-16T00:49:53;100626.88;;;12.03;85.00
8653;BME280;4364;52.426;9.424;2022-10-16T00:52:22;100630.41;;;12.03;84.72
8653;BME280;4364;52.426;9.424;2022-10-16T00:54:49;100632.06;;;12.04;85.35
8653;BME280;4364;52.426;9.424;2022-10-16T00:57:18;100631.22;;;12.04;85.69
8653;BME280;4364;52.426;9.424;2022-10-16T00:59:45;100626.34;;;12.01;86.18
8653;BME280;4364;52.426;9.424;2022-10-16T01:02:14;100629.91;;;12.01;86.50
8653;BME280;4364;52.426;9.424;2022-10-16T01:04:44;100625.25;;;12.02;86.47
8653;BME280;4364;52.426;9.424;2022-10-16T01:15:39;100633.38;;;12.07;87.55
8653;BME280;4364;52.426;9.424;2022-10-16T01:26:34;100639.50;;;11.94;89.86
8653;BME280;4364;52.426;9.424;2022-10-16T01:29:11;100644.94;;;11.94;90.80
8653;BME280;4364;52.426;9.424;2022-10-16T01:31:44;100640.84;;;11.96;90.63
8653;BME280;4364;52.426;9.424;2022-10-16T01:34:33;100641.66;;;11.97;90.88
8653;BME280;4364;52.426;9.424;2022-10-16T01:37:05;100650.63;;;11.97;91.06
8653;BME280;4364;52.426;9.424;2022-10-16T01:39:35;100649.84;;;11.97;91.31
8653;BME280;4364;52.426;9.424;2022-10-16T01:42:09;100649.03;;;11.96;91.73
8653;BME280;4364;52.426;9.424;2022-10-16T01:44:39;100652.56;;;11.97;92.44
8653;BME280;4364;52.426;9.424;2022-10-16T01:47:10;100657.50;;;11.95;92.21
8653;BME280;4364;52.426;9.424;2022-10-16T01:49:39;100648.75;;;11.93;92.65
8653;BME280;4364;52.426;9.424;2022-10-16T01:52:12;100655.34;;;11.92;93.08
8653;BME280;4364;52.426;9.424;2022-10-16T01:54:42;100649.34;;;11.90;93.26
8653;BME280;4364;52.426;9.424;2022-10-16T01:57:12;100651.00;;;11.85;93.84
8653;BME280;4364;52.426;9.424;2022-10-16T01:59:48;100648.84;;;11.82;94.09
8653;BME280;4364;52.426;9.424;2022-10-16T02:02:18;100644.75;;;11.85;93.73
8653;BME280;4364;52.426;9.424;2022-10-16T02:04:49;100643.38;;;11.82;93.97
8653;BME280;4364;52.426;9.424;2022-10-16T02:07:18;100646.41;;;11.81;93.90
8653;BME280;4364;52.426;9.424;2022-10-16T02:09:45;100647.00;;;11.78;94.21
8653;BME280;4364;52.426;9.424;2022-10-16T02:12:33;100648.41;;;11.70;94.92
8653;BME280;4364;52.426;9.424;2022-10-16T02:15:02;100652.22;;;11.69;95.74
8653;BME280;4364;52.426;9.424;2022-10-16T02:17:29;100652.47;;;11.73;95.58
8653;BME280;4364;52.426;9.424;2022-10-16T02:19:56;100654.66;;;11.71;95.96
8653;BME280;4364;52.426;9.424;2022-10-16T02:22:30;100658.22;;;11.71;96.11
8653;BME280;4364;52.426;9.424;2022-10-16T02:25:06;100669.34;;;11.75;96.58
8653;BME280;4364;52.426;9.424;2022-10-16T02:27:41;100662.78;;;11.76;96.29
8653;BME280;4364;52.426;9.424;2022-10-16T02:30:20;100668.28;;;11.71;96.88
8653;BME280;4364;52.426;9.424;2022-10-16T02:32:48;100668.22;;;11.76;96.77
8653;BME280;4364;52.426;9.424;2022-10-16T02:35:17;100679.41;;;11.74;97.43
8653;BME280;4364;52.426;9.424;2022-10-16T02:37:46;100663.34;;;11.73;97.20
8653;BME280;4364;52.426;9.424;2022-10-16T02:40:14;100658.22;;;11.71;97.67
8653;BME280;4364;52.426;9.424;2022-10-16T02:42:44;100656.59;;;11.70;97.96
8653;BME280;4364;52.426;9.424;2022-10-16T02:45:11;100664.19;;;11.73;97.91
8653;BME280;4364;52.426;9.424;2022-10-16T02:47:38;100660.09;;;11.71;98.27
8653;BME280;4364;52.426;9.424;2022-10-16T02:50:05;100660.94;;;11.71;98.34
8653;BME280;4364;52.426;9.424;2022-10-16T02:52:31;100665.03;;;11.68;98.61
8653;BME280;4364;52.426;9.424;2022-10-16T02:54:58;100669.69;;;11.68;98.88
8653;BME280;4364;52.426;9.424;2022-10-16T02:57:24;100666.72;;;11.64;99.25
8653;BME280;4364;52.426;9.424;2022-10-16T02:59:52;100665.88;;;11.64;99.24
8653;BME280;4364;52.426;9.424;2022-10-16T03:02:19;100665.59;;;11.65;99.43
8653;BME280;4364;52.426;9.424;2022-10-16T03:04:46;100664.28;;;11.63;99.39
8653;BME280;4364;52.426;9.424;2022-10-16T03:07:12;100669.16;;;11.61;99.54
8653;BME280;4364;52.426;9.424;2022-10-16T03:09:39;100670.00;;;11.61;99.46
8653;BME280;4364;52.426;9.424;2022-10-16T03:12:06;100668.88;;;11.62;99.57
8653;BME280;4364;52.426;9.424;2022-10-16T03:14:33;100675.44;;;11.61;100.00
8653;BME280;4364;52.426;9.424;2022-10-16T03:17:00;100672.44;;;11.63;100.00
8653;BME280;4364;52.426;9.424;2022-10-16T03:19:27;100675.72;;;11.60;99.88
8653;BME280;4364;52.426;9.424;2022-10-16T03:21:53;100674.91;;;11.59;99.76
8653;BME280;4364;52.426;9.424;2022-10-16T03:24:20;100676.81;;;11.59;99.90
8653;BME280;4364;52.426;9.424;2022-10-16T03:26:46;100672.19;;;11.59;99.41
8653;BME280;4364;52.426;9.424;2022-10-16T03:29:13;100673.34;;;11.53;99.65
8653;BME280;4364;52.426;9.424;2022-10-16T03:31:39;100673.91;;;11.50;99.25
8653;BME280;4364;52.426;9.424;2022-10-16T03:34:06;100668.25;;;11.41;98.96
8653;BME280;4364;52.426;9.424;2022-10-16T03:36:33;100667.44;;;11.36;99.12
8653;BME280;4364;52.426;9.424;2022-10-16T03:38:59;100670.22;;;11.30;99.52
8653;BME280;4364;52.426;9.424;2022-10-16T03:41:26;100662.88;;;11.31;99.23
8653;BME280;4364;52.426;9.424;2022-10-16T03:43:53;100671.03;;;11.31;99.23
8653;BME280;4364;52.426;9.424;2022-10-16T03:46:19;100669.41;;;11.30;99.26
8653;BME280;4364;52.426;9.424;2022-10-16T03:48:46;100671.09;;;11.21;98.97
8653;BME280;4364;52.426;9.424;2022-10-16T03:51:12;100666.47;;;11.21;99.22
8653;BME280;4364;52.426;9.424;2022-10-16T03:53:39;100675.16;;;11.23;99.30
8653;BME280;4364;52.426;9.424;2022-10-16T03:56:06;100669.19;;;11.21;99.55
8653;BME280;4364;52.426;9.424;2022-10-16T03:58:33;100678.16;;;11.22;99.25
8653;BME280;4364;52.426;9.424;2022-10-16T04:00:59;100680.38;;;11.20;99.13
8653;BME280;4364;52.426;9.424;2022-10-16T04:03:26;100680.66;;;11.13;99.21
8653;BME280;4364;52.426;9.424;2022-10-16T04:05:53;100684.75;;;11.10;99.12
8653;BME280;4364;52.426;9.424;2022-10-16T04:08:20;100686.66;;;11.10;99.66
8653;BME280;4364;52.426;9.424;2022-10-16T04:10:47;100698.38;;;11.05;99.61
8653;BME280;4364;52.426;9.424;2022-10-16T04:13:13;100700.31;;;11.05;100.00
8653;BME280;4364;52.426;9.424;2022-10-16T04:15:40;100705.22;;;11.03;100.00
8653;BME280;4364;52.426;9.424;2022-10-16T04:18:06;100705.47;;;11.06;100.00
8653;BME280;4364;52.426;9.424;2022-10-16T04:20:33;100697.88;;;11.03;99.79
8653;BME280;4364;52.426;9.424;2022-10-16T04:23:00;100695.69;;;11.00;99.95
8653;BME280;4364;52.426;9.424;2022-10-16T04:25:27;100697.88;;;10.98;100.00
8653;BME280;4364;52.426;9.424;2022-10-16T04:27:54;100695.19;;;10.93;100.00
8653;BME280;4364;52.426;9.424;2022-10-16T04:30:21;100704.44;;;10.92;100.00
8653;BME280;4364;52.426;9.424;2022-10-16T04:32:51;100709.34;;;10.90;100.00
8653;BME280;4364;52.426;9.424;2022-10-16T04:35:20;100719.16;;;10.91;100.00
8653;BME280;4364;52.426;9.424;2022-10-16T04:37:47;100708.81;;;10.93;100.00
8653;BME280;4364;52.426;9.424;2022-10-16T04:40:14;100703.63;;;10.91;100.00
8653;BME280;4364;52.426;9.424;2022-10-16T04:42:40;100702.84;;;10.91;100.00
8653;BME280;4364;52.426;9.424;2022-10-16T04:45:08;100685.94;;;10.89;100.00
8653;BME280;4364;52.426;9.424;2022-10-16T04:47:40;100702.81;;;10.86;100.00
8653;BME280;4364;52.426;9.424;2022-10-16T04:50:07;100703.41;;;10.83;100.00
8653;BME280;4364;52.426;9.424;2022-10-16T04:52:33;100713.19;;;10.79;100.00
8653;BME280;4364;52.426;9.424;2022-10-16T04:55:05;100716.19;;;10.77;100.00
8653;BME280;4364;52.426;9.424;2022-10-16T04:57:32;100728.16;;;10.81;100.00
8653;BME280;4364;52.426;9.424;2022-10-16T04:59:59;100728.41;;;10.85;100.00
8653;BME280;4364;52.426;9.424;2022-10-16T05:02:26;100724.91;;;10.84;100.00
8653;BME280;4364;52.426;9.424;2022-10-16T05:04:53;100726.78;;;10.84;100.00
8653;BME280;4364;52.426;9.424;2022-10-16T05:07:19;100727.59;;;10.79;100.00
8653;BME280;4364;52.426;9.424;2022-10-16T05:09:46;100731.44;;;10.78;100.00
8653;BME280;4364;52.426;9.424;2022-10-16T05:12:12;100728.44;;;10.80;100.00
8653;BME280;4364;52.426;9.424;2022-10-16T05:14:39;100731.72;;;10.77;100.00
8653;BME280;4364;52.426;9.424;2022-10-16T05:17:05;100728.19;;;10.76;100.00
8653;BME280;4364;52.426;9.424;2022-10-16T05:19:32;100737.16;;;10.71;100.00
8653;BME280;4364;52.426;9.424;2022-10-16T05:21:58;100742.88;;;10.70;100.00
8653;BME280;4364;52.426;9.424;2022-10-16T05:24:25;100732.56;;;10.67;100.00
8653;BME280;4364;52.426;9.424;2022-10-16T05:26:51;100734.47;;;10.66;100.00
8653;BME280;4364;52.426;9.424;2022-10-16T05:29:18;100738.25;;;10.65;100.00
8653;BME280;4364;52.426;9.424;2022-10-16T05:31:45;100733.94;;;10.64;100.00
8653;BME280;4364;52.426;9.424;2022-10-16T05:34:11;100741.25;;;10.69;100.00
8653;BME280;4364;52.426;9.424;2022-10-16T05:36:38;100729.03;;;10.66;100.00
8653;BME280;4364;52.426;9.424;2022-10-16T05:39:04;100733.63;;;10.66;100.00
8653;BME280;4364;52.426;9.424;2022-10-16T05:41:31;100732.56;;;10.67;100.00
8653;BME280;4364;52.426;9.424;2022-10-16T05:43:58;100730.63;;;10.67;100.00
8653;BME280;4364;52.426;9.424;2022-10-16T05:46:24;100739.91;;;10.66;100.00
8653;BME280;4364;52.426;9.424;2022-10-16T05:48:54;100736.34;;;10.66;100.00
8653;BME280;4364;52.426;9.424;2022-10-16T05:51:20;100745.88;;;10.68;100.00
8653;BME280;4364;52.426;9.424;2022-10-16T05:53:47;100747.81;;;10.63;100.00
8653;BME280;4364;52.426;9.424;2022-10-16T05:56:13;100750.78;;;10.61;100.00
8653;BME280;4364;52.426;9.424;2022-10-16T05:58:40;100748.59;;;10.63;100.00
8653;BME280;4364;52.426;9.424;2022-10-16T06:01:15;100742.63;;;10.66;100.00
8653;BME280;4364;52.426;9.424;2022-10-16T06:03:43;100747.22;;;10.66;100.00
8653;BME280;4364;52.426;9.424;2022-10-16T06:06:17;100749.66;;;10.67;100.00
8653;BME280;4364;52.426;9.424;2022-10-16T06:08:45;100758.09;;;10.66;100.00
8653;BME280;4364;52.426;9.424;2022-10-16T06:11:17;100763.00;;;10.69;100.00
8653;BME280;4364;52.426;9.424;2022-10-16T06:13:44;100761.91;;;10.70;100.00
8653;BME280;4364;52.426;9.424;2022-10-16T06:16:12;100769.00;;;10.71;100.00
8653;BME280;4364;52.426;9.424;2022-10-16T06:18:39;100765.97;;;10.72;100.00
8653;BME280;4364;52.426;9.424;2022-10-16T06:21:11;100776.56;;;10.79;100.00
8653;BME280;4364;52.426;9.424;2022-10-16T06:23:38;100779.28;;;10.84;100.00
8653;BME280;4364;52.426;9.424;2022-10-16T06:26:09;100785.53;;;10.90;100.00
8653;BME280;4364;52.426;9.424;2022-10-16T06:28:37;100788.22;;;10.95;100.00
8653;BME280;4364;52.426;9.424;2022-10-16T06:31:05;100786.03;;;10.97;100.00
8653;BME280;4364;52.426;9.424;2022-10-16T06:33:34;100790.63;;;11.07;100.00
8653;BME280;4364;52.426;9.424;2022-10-16T06:38:32;100792.47;;;11.22;100.00
8653;BME280;4364;52.426;9.424;2022-10-16T06:40:59;100780.75;;;11.31;100.00
8653;BME280;4364;52.426;9.424;2022-10-16T06:43:29;100787.50;;;11.44;100.00
8653;BME280;4364;52.426;9.424;2022-10-16T06:45:59;100788.75;;;11.57;100.00
8653;BME280;4364;52.426;9.424;2022-10-16T06:48:26;100803.13;;;11.73;100.00
8653;BME280;4364;52.426;9.424;2022-10-16T06:50:59;100800.84;;;11.85;100.00
8653;BME280;4364;52.426;9.424;2022-10-16T06:53:28;100806.75;;;12.03;100.00
8653;BME280;4364;52.426;9.424;2022-10-16T06:56:10;100807.75;;;12.12;100.00
8653;BME280;4364;52.426;9.424;2022-10-16T06:58:37;100813.13;;;12.22;100.00
8653;BME280;4364;52.426;9.424;2022-10-16T07:01:05;100807.91;;;12.31;100.00
8653;BME280;4364;52.426;9.424;2022-10-16T07:03:32;100807.53;;;12.43;100.00
8653;BME280;4364;52.426;9.424;2022-10-16T07:06:03;100812.66;;;12.50;99.21
8653;BME280;4364;52.426;9.424;2022-10-16T07:08:38;100822.00;;;12.68;98.49
8653;BME280;4364;52.426;9.424;2022-10-16T07:11:07;100821.66;;;12.74;97.48
8653;BME280;4364;52.426;9.424;2022-10-16T07:13:35;100832.84;;;12.78;96.07
8653;BME280;4364;52.426;9.424;2022-10-16T07:18:32;100836.44;;;12.97;94.86
8653;BME280;4364;52.426;9.424;2022-10-16T07:21:04;100842.50;;;13.19;94.21
8653;BME280;4364;52.426;9.424;2022-10-16T07:23:31;100842.50;;;13.19;94.08
8653;BME280;4364;52.426;9.424;2022-10-16T07:25:57;100851.19;;;13.21;93.96
8653;BME280;4364;52.426;9.424;2022-10-16T07:28:24;100856.28;;;13.32;93.08
8653;BME280;4364;52.426;9.424;2022-10-16T07:30:51;100853.47;;;13.38;92.83
8653;BME280;4364;52.426;9.424;2022-10-16T07:33:17;100861.31;;;13.44;92.67
8653;BME280;4364;52.426;9.424;2022-10-16T07:36:02;100873.75;;;13.56;92.32
8653;BME280;4364;52.426;9.424;2022-10-16T07:38:29;100873.91;;;13.64;91.46
8653;BME280;4364;52.426;9.424;2022-10-16T07:41:00;100886.84;;;13.78;90.87
8653;BME280;4364;52.426;9.424;2022-10-16T07:43:29;100884.34;;;13.81;89.79
8653;BME280;4364;52.426;9.424;2022-10-16T07:45:56;100890.66;;;13.82;89.92
8653;BME280;4364;52.426;9.424;2022-10-16T07:48:30;100899.88;;;13.86;90.26
8653;BME280;4364;52.426;9.424;2022-10-16T07:50:58;100911.72;;;14.00;87.46
8653;BME280;4364;52.426;9.424;2022-10-16T07:53:26;100902.63;;;14.05;87.20
8653;BME280;4364;52.426;9.424;2022-10-16T07:55:58;100894.56;;;14.14;87.59
8653;BME280;4364;52.426;9.424;2022-10-16T07:58:25;100888.50;;;14.17;87.53
8653;BME280;4364;52.426;9.424;2022-10-16T08:00:52;100896.63;;;14.22;87.05
8653;BME280;4364;52.426;9.424;2022-10-16T08:03:19;100907.56;;;14.22;86.51
8653;BME280;4364;52.426;9.424;2022-10-16T08:05:45;100914.06;;;14.26;86.75
8653;BME280;4364;52.426;9.424;2022-10-16T08:08:16;100919.03;;;14.24;86.54
8653;BME280;4364;52.426;9.424;2022-10-16T08:10:43;100920.03;;;14.28;85.93
8653;BME280;4364;52.426;9.424;2022-10-16T08:13:09;100924.00;;;14.22;86.38
8653;BME280;4364;52.426;9.424;2022-10-16T08:15:36;100929.88;;;14.29;85.68
8653;BME280;4364;52.426;9.424;2022-10-16T08:18:04;100926.84;;;14.31;84.51
8653;BME280;4364;52.426;9.424;2022-10-16T08:20:32;100930.69;;;14.30;85.37
8653;BME280;4364;52.426;9.424;2022-10-16T08:23:00;100926.34;;;14.29;85.76
8653;BME280;4364;52.426;9.424;2022-10-16T08:25:28;100937.44;;;14.37;83.99
8653;BME280;4364;52.426;9.424;2022-10-16T08:27:54;100946.34;;;14.43;84.18
8653;BME280;4364;52.426;9.424;2022-10-16T08:30:23;100950.16;;;14.66;82.61
8653;BME280;4364;52.426;9.424;2022-10-16T08:32:50;100945.56;;;14.61;82.82
8653;BME280;4364;52.426;9.424;2022-10-16T08:35:17;100952.00;;;14.71;82.54
8653;BME280;4364;52.426;9.424;2022-10-16T08:37:43;100955.66;;;14.80;81.29
8653;BME280;4364;52.426;9.424;2022-10-16T08:40:19;100945.16;;;14.87;81.13
8653;BME280;4364;52.426;9.424;2022-10-16T08:48:16;100957.59;;;15.12;79.25
8653;BME280;4364;52.426;9.424;2022-10-16T08:50:44;100956.25;;;15.10;79.40
8653;BME280;4364;52.426;9.424;2022-10-16T08:53:19;100965.31;;;15.10;79.78
8653;BME280;4364;52.426;9.424;2022-10-16T08:55:50;100961.13;;;15.13;78.96
8653;BME280;4364;52.426;9.424;2022-10-16T08:58:22;100973.34;;;15.21;79.49
8653;BME280;4364;52.426;9.424;2022-10-16T09:01:01;100972.19;;;15.22;79.35
8653;BME280;4364;52.426;9.424;2022-10-16T09:06:10;100989.59;;;15.45;78.64
8653;BME280;4364;52.426;9.424;2022-10-16T09:11:41;101003.09;;;15.41;77.36
8653;BME280;4364;52.426;9.424;2022-10-16T09:14:28;100997.63;;;15.41;79.12
8653;BME280;4364;52.426;9.424;2022-10-16T09:20:19;101006.56;;;15.61;77.61
8653;BME280;4364;52.426;9.424;2022-10-16T09:22:53;101009.41;;;15.69;77.64
8653;BME280;4364;52.426;9.424;2022-10-16T09:25:22;101015.91;;;15.73;76.05
8653;BME280;4364;52.426;9.424;2022-10-16T09:27:52;101023.25;;;15.78;76.25
8653;BME280;4364;52.426;9.424;2022-10-16T09:30:20;101019.31;;;15.84;76.22
8653;BME280;4364;52.426;9.424;2022-10-16T09:32:50;101021.94;;;16.03;75.50
8653;BME280;4364;52.426;9.424;2022-10-16T09:35:33;101009.03;;;16.04;75.75
8653;BME280;4364;52.426;9.424;2022-10-16T09:38:02;101013.19;;;16.15;75.15
8653;BME280;4364;52.426;9.424;2022-10-16T09:40:32;101013.59;;;16.22;75.12
8653;BME280;4364;52.426;9.424;2022-10-16T09:46:05;101020.38;;;16.25;73.97
8653;BME280;4364;52.426;9.424;2022-10-16T09:51:13;101031.88;;;16.13;73.54
8653;BME280;4364;52.426;9.424;2022-10-16T09:53:46;101036.56;;;16.13;72.95
8653;BME280;4364;52.426;9.424;2022-10-16T09:56:22;101044.78;;;16.26;73.04
8653;BME280;4364;52.426;9.424;2022-10-16T09:58:51;101036.22;;;16.28;73.41
8653;BME280;4364;52.426;9.424;2022-10-16T10:01:19;101042.31;;;16.25;73.08
8653;BME280;4364;52.426;9.424;2022-10-16T10:03:47;101042.41;;;16.34;71.90
8653;BME280;4364;52.426;9.424;2022-10-16T10:06:21;101044.97;;;16.44;72.52
8653;BME280;4364;52.426;9.424;2022-10-16T10:12:03;101054.75;;;16.73;70.06
8653;BME280;4364;52.426;9.424;2022-10-16T10:14:37;101057.19;;;16.74;69.41
8653;BME280;4364;52.426;9.424;2022-10-16T10:17:25;101060.53;;;16.71;68.79
8653;BME280;4364;52.426;9.424;2022-10-16T10:25:26;101070.69;;;15.92;71.03
8653;BME280;4364;52.426;9.424;2022-10-16T10:33:35;101070.38;;;16.08;71.16
8653;BME280;4364;52.426;9.424;2022-10-16T10:39:02;101070.25;;;16.27;70.97
8653;BME280;4364;52.426;9.424;2022-10-16T10:44:19;101071.88;;;16.42;67.41
8653;BME280;4364;52.426;9.424;2022-10-16T10:46:57;101071.66;;;16.52;67.63
8653;BME280;4364;52.426;9.424;2022-10-16T10:55:20;101071.34;;;16.67;66.00
8653;BME280;4364;52.426;9.424;2022-10-16T11:03:27;101074.75;;;16.87;65.58
8653;BME280;4364;52.426;9.424;2022-10-16T11:06:02;101080.59;;;17.08;64.65
8653;BME280;4364;52.426;9.424;2022-10-16T11:08:39;101079.84;;;17.16;65.14
8653;BME280;4364;52.426;9.424;2022-10-16T11:11:13;101079.09;;;17.25;64.85
8653;BME280;4364;52.426;9.424;2022-10-16T11:14:26;101080.63;;;17.17;64.54
8653;BME280;4364;52.426;9.424;2022-10-16T11:17:02;101093.88;;;17.15;64.05
8653;BME280;4364;52.426;9.424;2022-10-16T11:22:36;101088.31;;;17.29;64.61
8653;BME280;4364;52.426;9.424;2022-10-16T11:25:15;101092.66;;;17.52;63.68
8653;BME280;4364;52.426;9.424;2022-10-16T11:27:47;101097.78;;;17.68;62.54
8653;BME280;4364;52.426;9.424;2022-10-16T11:30:22;101086.66;;;17.73;60.71
8653;BME280;4364;52.426;9.424;2022-10-16T11:38:32;101098.97;;;18.07;60.78
8653;BME280;4364;52.426;9.424;2022-10-16T11:41:27;101099.13;;;18.10;60.45
8653;BME280;4364;52.426;9.424;2022-10-16T11:44:14;101102.47;;;17.90;61.49
8653;BME280;4364;52.426;9.424;2022-10-16T11:46:58;101101.13;;;17.56;61.27
8653;BME280;4364;52.426;9.424;2022-10-16T11:49:52;101109.38;;;17.56;62.23
8653;BME280;4364;52.426;9.424;2022-10-16T11:52:36;101111.03;;;17.66;61.94
8653;BME280;4364;52.426;9.424;2022-10-16T11:55:16;101109.31;;;17.78;61.25
8653;BME280;4364;52.426;9.424;2022-10-16T11:57:48;101114.19;;;17.82;60.62
8653;BME280;4364;52.426;9.424;2022-10-16T12:03:11;101124.22;;;17.77;60.44
8653;BME280;4364;52.426;9.424;2022-10-16T12:06:06;101137.06;;;17.59;60.03
8653;BME280;4364;52.426;9.424;2022-10-16T12:08:38;101138.81;;;17.33;61.43
8653;BME280;4364;52.426;9.424;2022-10-16T12:11:20;101139.72;;;17.28;61.42
8653;BME280;4364;52.426;9.424;2022-10-16T12:13:48;101141.38;;;17.29;61.84
8653;BME280;4364;52.426;9.424;2022-10-16T12:18:45;101137.22;;;17.63;61.13
8653;BME280;4364;52.426;9.424;2022-10-16T12:21:14;101136.81;;;17.78;61.34
8653;BME280;4364;52.426;9.424;2022-10-16T12:23:51;101129.03;;;17.94;59.84
8653;BME280;4364;52.426;9.424;2022-10-16T12:26:37;101133.38;;;17.95;59.92
8653;BME280;4364;52.426;9.424;2022-10-16T12:29:41;101125.81;;;18.01;59.51
8653;BME280;4364;52.426;9.424;2022-10-16T12:32:28;101132.00;;;18.15;58.87
8653;BME280;4364;52.426;9.424;2022-10-16T12:35:25;101124.59;;;18.16;58.76
8653;BME280;4364;52.426;9.424;2022-10-16T12:37:53;101136.72;;;18.15;58.70
8653;BME280;4364;52.426;9.424;2022-10-16T12:40:27;101140.25;;;18.15;58.82
8653;BME280;4364;52.426;9.424;2022-10-16T12:42:54;101135.94;;;18.23;58.75
8653;BME280;4364;52.426;9.424;2022-10-16T12:45:32;101147.25;;;18.22;58.40
8653;BME280;4364;52.426;9.424;2022-10-16T12:48:02;101153.09;;;18.20;58.87
8653;BME280;4364;52.426;9.424;2022-10-16T12:50:37;101150.03;;;18.30;58.68
8653;BME280;4364;52.426;9.424;2022-10-16T12:53:23;101153.09;;;18.29;58.64
8653;BME280;4364;52.426;9.424;2022-10-16T12:55:57;101161.63;;;18.50;58.67
8653;BME280;4364;52.426;9.424;2022-10-16T13:10:02;101161.50;;;18.73;56.96
8653;BME280;4364;52.426;9.424;2022-10-16T13:18:43;101160.84;;;18.67;56.19
8653;BME280;4364;52.426;9.424;2022-10-16T13:24:14;101173.50;;;18.68;55.40
8653;BME280;4364;52.426;9.424;2022-10-16T13:26:46;101176.25;;;18.68;55.49
8653;BME280;4364;52.426;9.424;2022-10-16T13:29:15;101181.13;;;18.80;56.14
8653;BME280;4364;52.426;9.424;2022-10-16T13:31:43;101185.81;;;18.79;55.78
8653;BME280;4364;52.426;9.424;2022-10-16T13:34:16;101180.44;;;18.74;54.94
8653;BME280;4364;52.426;9.424;2022-10-16T13:36:49;101193.75;;;18.72;55.32
8653;BME280;4364;52.426;9.424;2022-10-16T13:39:30;101191.31;;;18.79;55.36
8653;BME280;4364;52.426;9.424;2022-10-16T13:42:06;101181.19;;;18.88;54.98
8653;BME280;4364;52.426;9.424;2022-10-16T13:44:43;101191.06;;;18.90;55.07
8653;BME280;4364;52.426;9.424;2022-10-16T13:47:22;101196.34;;;18.77;54.91
8653;BME280;4364;52.426;9.424;2022-10-16T13:50:03;101188.84;;;18.60;55.57
8653;BME280;4364;52.426;9.424;2022-10-16T13:52:31;101190.31;;;18.58;55.52
8653;BME280;4364;52.426;9.424;2022-10-16T13:54:58;101191.63;;;18.69;55.76
8653;BME280;4364;52.426;9.424;2022-10-16T13:57:27;101188.41;;;18.76;55.17
8653;BME280;4364;52.426;9.424;2022-10-16T13:59:55;101185.31;;;18.68;54.86
8653;BME280;4364;52.426;9.424;2022-10-16T14:02:37;101194.50;;;18.55;55.77
8653;BME280;4364;52.426;9.424;2022-10-16T14:05:08;101190.44;;;18.52;55.87
8653;BME280;4364;52.426;9.424;2022-10-16T14:07:37;101202.63;;;18.60;55.90
8653;BME280;4364;52.426;9.424;2022-10-16T14:10:06;101192.72;;;18.59;56.27
8653;BME280;4364;52.426;9.424;2022-10-16T14:12:44;101208.28;;;18.55;56.28
8653;BME280;4364;52.426;9.424;2022-10-16T14:15:18;101213.63;;;18.60;55.97
8653;BME280;4364;52.426;9.424;2022-10-16T14:17:48;101222.22;;;18.59;56.05
8653;BME280;4364;52.426;9.424;2022-10-16T14:20:16;101217.16;;;18.52;54.92
8653;BME280;4364;52.426;9.424;2022-10-16T14:22:43;101223.31;;;18.49;55.38
8653;BME280;4364;52.426;9.424;2022-10-16T14:27:57;101217.00;;;18.48;55.76
8653;BME280;4364;52.426;9.424;2022-10-16T14:30:26;101224.91;;;18.41;56.40
8653;BME280;4364;52.426;9.424;2022-10-16T14:33:04;101222.03;;;18.46;55.98
8653;BME280;4364;52.426;9.424;2022-10-16T14:37:59;101222.09;;;18.32;56.22
8653;BME280;4364;52.426;9.424;2022-10-16T14:40:30;101226.44;;;18.25;56.14
8653;BME280;4364;52.426;9.424;2022-10-16T14:42:59;101229.97;;;18.17;56.83
8653;BME280;4364;52.426;9.424;2022-10-16T14:45:28;101227.22;;;18.17;57.28
8653;BME280;4364;52.426;9.424;2022-10-16T14:47:58;101233.03;;;18.15;56.82
8653;BME280;4364;52.426;9.424;2022-10-16T14:50:25;101226.34;;;18.07;56.76
8653;BME280;4364;52.426;9.424;2022-10-16T14:52:52;101222.78;;;18.07;57.46
8653;BME280;4364;52.426;9.424;2022-10-16T14:55:19;101226.28;;;17.99;57.42
8653;BME280;4364;52.426;9.424;2022-10-16T14:57:46;101227.31;;;18.03;57.28
8653;BME280;4364;52.426;9.424;2022-10-16T15:00:19;101228.75;;;18.00;56.97
8653;BME280;4364;52.426;9.424;2022-10-16T15:02:48;101246.06;;;18.01;57.08
8653;BME280;4364;52.426;9.424;2022-10-16T15:07:44;101236.44;;;17.89;57.40
8653;BME280;4364;52.426;9.424;2022-10-16T15:10:16;101242.34;;;17.83;57.83
8653;BME280;4364;52.426;9.424;2022-10-16T15:12:43;101242.59;;;17.72;58.22
8653;BME280;4364;52.426;9.424;2022-10-16T15:17:58;101259.19;;;17.81;58.76
8653;BME280;4364;52.426;9.424;2022-10-16T15:20:28;101260.47;;;17.61;59.05
8653;BME280;4364;52.426;9.424;2022-10-16T15:22:57;101264.28;;;17.51;59.54